Time;durP1;ratioP1;P1;durP2;ratioP2;P2;SDS_P1;SDS_P2;PMS_P1;PMS_P2;Temp;Humidity;BMP_temperature;BMP_pressure;BME280_temperature;BME280_humidity;BME280_pressure;Samples;Min_cycle;Max_cycle;Signal;HPM_P1;HPM_P2
2022/12/07 00:00:01;;;;;;;;;;;;;;;5.88;100.00;99769.78;329495;30;1900;-76
2022/12/07 00:00:12;;;;;;;;;;;;;;;5.88;100.00;99772.38;329340;29;2242;-76
2022/12/07 00:00:22;;;;;;;;;;;;;;;5.88;100.00;99770.66;328630;29;2323;-76
2022/12/07 00:00:32;;;;;;;;;;;;;;;5.89;100.00;99774.13;329679;30;911;-76
2022/12/07 00:00:42;;;;;;;;;;;;;;;5.89;100.00;99777.59;326940;30;2541;-76
2022/12/07 00:00:53;;;;;;;;;;;;;;;5.89;100.00;99776.72;324493;30;2600;-76
2022/12/07 00:01:13;;;;;;;;;;;;;;;5.88;100.00;99780.19;323602;30;1193;-76
2022/12/07 00:01:24;;;;;;;;;;;;;;;5.88;100.00;99775.00;320844;30;1802;-75
2022/12/07 00:01:36;;;;;;;;;;;;;;;5.87;100.00;99765.47;325754;30;1432;-75
2022/12/07 00:01:46;;;;;;;;;;;;;;;5.85;100.00;99770.72;324867;30;833;-76
2022/12/07 00:01:56;;;;;;;;;;;;;;;5.86;100.00;99772.41;322060;30;1784;-76
2022/12/07 00:02:07;;;;;;;;;;;;;;;5.86;100.00;99769.81;322957;30;2371;-76
2022/12/07 00:02:17;;;;;;;;;;;;;;;5.84;100.00;99774.19;325697;30;1478;-77
2022/12/07 00:02:27;;;;;;;;;;;;;;;5.85;100.00;99769.84;323450;30;3044;-77
2022/12/07 00:02:37;;;;;;;;;;;;;;;5.86;100.00;99774.16;317265;30;3002;-77
2022/12/07 00:02:49;;;;;;;;;;;;;;;5.85;100.00;99775.91;314458;31;800;-77
2022/12/07 00:02:59;;;;;;;;;;;;;;;5.85;100.00;99775.91;312487;31;3028;-77
2022/12/07 00:03:09;;;;;;;;;;;;;;;5.84;100.00;99769.00;313915;31;3488;-76
2022/12/07 00:03:20;;;;;;;;;;;;;;;5.83;100.00;99769.88;314293;31;1244;-76
2022/12/07 00:03:30;;;;;;;;;;;;;;;5.84;100.00;99771.59;313365;31;839;-76
2022/12/07 00:03:41;;;;;;;;;;;;;;;5.85;100.00;99772.44;313003;31;1811;-76
2022/12/07 00:03:51;;;;;;;;;;;;;;;5.85;100.00;99772.44;311242;31;2261;-76
2022/12/07 00:04:05;;;;;;;;;;;;;;;5.85;100.00;99769.84;306718;32;1787;-76
2022/12/07 00:04:16;;;;;;;;;;;;;;;5.85;100.00;99775.91;307759;32;1295;-76
2022/12/07 00:04:26;;;;;;;;;;;;;;;5.84;100.00;99774.19;307491;32;3644;-76
2022/12/07 00:04:37;;;;;;;;;;;;;;;5.83;100.00;99775.06;307825;32;4599;-76
2022/12/07 00:04:48;;;;;;;;;;;;;;;5.85;100.00;99772.44;305559;32;1232;-76
2022/12/07 00:04:58;;;;;;;;;;;;;;;5.84;100.00;99775.94;297044;32;5555;-75
2022/12/07 00:05:08;;;;;;;;;;;;;;;5.83;100.00;99779.41;296475;33;8207;-76
2022/12/07 00:05:19;;;;;;;;;;;;;;;5.83;100.00;99776.81;296059;33;2866;-76
2022/12/07 00:05:29;;;;;;;;;;;;;;;5.84;100.00;99783.72;298413;33;3246;-76
2022/12/07 00:05:39;;;;;;;;;;;;;;;5.83;100.00;99777.66;296752;33;3234;-75
2022/12/07 00:05:50;;;;;;;;;;;;;;;5.83;100.00;99776.81;296256;33;1931;-75
2022/12/07 00:06:00;;;;;;;;;;;;;;;5.83;100.00;99776.81;288850;34;1433;-75
2022/12/07 00:06:11;;;;;;;;;;;;;;;5.83;100.00;99776.81;289435;33;3092;-75
2022/12/07 00:06:21;;;;;;;;;;;;;;;5.82;100.00;99781.16;290447;33;3825;-75
2022/12/07 00:06:35;;;;;;;;;;;;;;;5.82;100.00;99778.56;289637;34;908;-76
2022/12/07 00:06:47;;;;;;;;;;;;;;;5.83;100.00;99776.81;287630;34;1244;-76
2022/12/07 00:06:57;;;;;;;;;;;;;;;5.81;100.00;99774.25;287073;34;6526;-76
2022/12/07 00:07:07;;;;;;;;;;;;;;;5.82;100.00;99775.09;285257;34;6367;-76
2022/12/07 00:07:18;;;;;;;;;;;;;;;5.81;100.00;99774.25;289573;34;1330;-75
2022/12/07 00:07:28;;;;;;;;;;;;;;;5.81;100.00;99776.84;289610;33;6147;-76
2022/12/07 00:07:38;;;;;;;;;;;;;;;5.81;100.00;99775.97;286315;34;5154;-75
2022/12/07 00:07:49;;;;;;;;;;;;;;;5.80;100.00;99779.47;285890;34;828;-76
2022/12/07 00:07:59;;;;;;;;;;;;;;;5.80;100.00;99776.88;286431;34;4509;-76
2022/12/07 00:08:09;;;;;;;;;;;;;;;5.80;100.00;99776.88;285367;34;3986;-75
2022/12/07 00:08:19;;;;;;;;;;;;;;;5.79;100.00;99777.75;287870;34;1538;-76
2022/12/07 00:08:30;;;;;;;;;;;;;;;5.80;100.00;99777.72;283695;34;4221;-76
2022/12/07 00:08:40;;;;;;;;;;;;;;;5.80;100.00;99777.72;283618;34;6087;-76
2022/12/07 00:08:50;;;;;;;;;;;;;;;5.80;100.00;99782.06;282546;34;6977;-75
2022/12/07 00:09:01;;;;;;;;;;;;;;;5.80;100.00;99771.69;281270;35;911;-76
2022/12/07 00:09:12;;;;;;;;;;;;;;;5.80;100.00;99776.88;277933;35;8761;-76
2022/12/07 00:09:22;;;;;;;;;;;;;;;5.80;100.00;99779.47;275402;35;8716;-76
2022/12/07 00:09:32;;;;;;;;;;;;;;;5.79;100.00;99769.97;277653;35;1360;-76
2022/12/07 00:11:42;;;;;;;;;;;;;;;5.80;100.00;99776.88;2498206;27;19933;-75
2022/12/07 00:11:53;;;;;;;;;;;;;;;5.79;100.00;99775.16;356320;27;1205;-76
2022/12/07 00:12:03;;;;;;;;;;;;;;;5.80;100.00;99776.88;353471;28;1198;-76
2022/12/07 00:12:13;;;;;;;;;;;;;;;5.79;100.00;99776.00;349949;28;1214;-76
2022/12/07 00:12:23;;;;;;;;;;;;;;;5.79;100.00;99772.56;347961;28;1362;-76
2022/12/07 00:12:34;;;;;;;;;;;;;;;5.80;100.00;99774.28;346588;28;824;-76
2022/12/07 00:12:44;;;;;;;;;;;;;;;5.79;100.00;99773.41;349226;28;1564;-76
2022/12/07 00:12:54;;;;;;;;;;;;;;;5.79;100.00;99777.75;349456;28;970;-77
2022/12/07 00:13:04;;;;;;;;;;;;;;;5.79;100.00;99780.34;350604;28;1318;-77
2022/12/07 00:13:15;;;;;;;;;;;;;;;5.78;100.00;99782.09;350663;28;1030;-77
2022/12/07 00:13:25;;;;;;;;;;;;;;;5.78;100.00;99773.44;350486;28;1335;-76
2022/12/07 00:13:36;;;;;;;;;;;;;;;5.78;100.00;99779.50;350622;28;913;-76
2022/12/07 00:13:46;;;;;;;;;;;;;;;5.78;100.00;99776.03;348838;28;1539;-77
2022/12/07 00:13:57;;;;;;;;;;;;;;;5.78;100.00;99776.91;347886;28;1455;-77
2022/12/07 00:14:09;;;;;;;;;;;;;;;5.78;100.00;99779.50;346158;28;4110;-76
2022/12/07 00:14:20;;;;;;;;;;;;;;;5.78;100.00;99773.44;348445;28;3596;-76
2022/12/07 00:14:30;;;;;;;;;;;;;;;5.78;100.00;99782.09;347676;28;1904;-76
2022/12/07 00:14:40;;;;;;;;;;;;;;;5.78;100.00;99773.44;347900;28;3820;-76
2022/12/07 00:14:50;;;;;;;;;;;;;;;5.77;100.00;99785.56;347867;28;1278;-76
2022/12/07 00:15:01;;;;;;;;;;;;;;;5.77;100.00;99779.53;346429;28;1866;-76
2022/12/07 00:15:11;;;;;;;;;;;;;;;5.78;100.00;99781.22;346426;28;1292;-76
2022/12/07 00:15:21;;;;;;;;;;;;;;;5.78;100.00;99781.22;348672;28;781;-76
2022/12/07 00:15:33;;;;;;;;;;;;;;;5.78;100.00;99779.50;352008;28;1128;-76
2022/12/07 00:15:43;;;;;;;;;;;;;;;5.79;100.00;99785.53;352183;28;1010;-76
2022/12/07 00:15:53;;;;;;;;;;;;;;;5.78;100.00;99778.63;350631;28;1407;-77
2022/12/07 00:16:24;;;;;;;;;;;;;;;5.77;100.00;99776.94;347726;28;1931;-76
2022/12/07 00:16:34;;;;;;;;;;;;;;;5.77;100.00;99782.13;346225;28;1107;-76
2022/12/07 00:16:45;;;;;;;;;;;;;;;5.78;100.00;99778.63;346630;28;868;-76
2022/12/07 00:16:55;;;;;;;;;;;;;;;5.77;100.00;99771.72;345242;28;876;-76
2022/12/07 00:17:05;;;;;;;;;;;;;;;5.76;100.00;99780.41;347825;28;1325;-75
2022/12/07 00:17:15;;;;;;;;;;;;;;;5.77;100.00;99779.53;346173;28;1226;-75
2022/12/07 00:17:25;;;;;;;;;;;;;;;5.77;100.00;99774.34;345082;28;828;-76
2022/12/07 00:17:36;;;;;;;;;;;;;;;5.76;100.00;99775.22;341049;28;1463;-76
2022/12/07 00:17:46;;;;;;;;;;;;;;;5.76;100.00;99783.00;341808;28;1997;-75
2022/12/07 00:17:56;;;;;;;;;;;;;;;5.74;100.00;99776.97;337258;29;1333;-76
2022/12/07 00:18:06;;;;;;;;;;;;;;;5.73;100.00;99781.31;339874;28;1225;-75
2022/12/07 00:18:18;;;;;;;;;;;;;;;5.73;100.00;99776.13;342417;28;1214;-76
2022/12/07 00:18:28;;;;;;;;;;;;;;;5.72;100.00;99773.56;339800;29;1230;-76
2022/12/07 00:18:38;;;;;;;;;;;;;;;5.73;100.00;99770.06;339892;29;882;-76
2022/12/07 00:18:48;;;;;;;;;;;;;;;5.72;100.00;99777.00;339921;29;877;-75
2022/12/07 00:18:59;;;;;;;;;;;;;;;5.72;100.00;99770.97;339839;29;1311;-76
2022/12/07 00:19:09;;;;;;;;;;;;;;;5.72;100.00;99779.59;339783;29;857;-77
2022/12/07 00:19:20;;;;;;;;;;;;;;;5.72;100.00;99773.56;339330;29;886;-77
2022/12/07 00:19:30;;;;;;;;;;;;;;;5.71;100.00;99777.03;340203;29;1229;-76
2022/12/07 00:19:40;;;;;;;;;;;;;;;5.71;100.00;99771.84;343379;28;1214;-76
2022/12/07 00:19:51;;;;;;;;;;;;;;;5.72;100.00;99773.56;343539;28;1365;-75
2022/12/07 00:20:01;;;;;;;;;;;;;;;5.71;100.00;99771.84;343581;28;1853;-77
2022/12/07 00:20:11;;;;;;;;;;;;;;;5.73;100.00;99775.28;334606;29;1204;-74
2022/12/07 00:20:21;;;;;;;;;;;;;;;5.72;100.00;99774.41;333736;29;1691;-76
2022/12/07 00:20:32;;;;;;;;;;;;;;;5.72;100.00;99779.59;331998;29;1989;-77
2022/12/07 00:20:43;;;;;;;;;;;;;;;5.73;100.00;99775.28;336034;29;1485;-77
2022/12/07 00:20:53;;;;;;;;;;;;;;;5.73;100.00;99777.88;336599;29;1254;-77
2022/12/07 00:21:04;;;;;;;;;;;;;;;5.73;100.00;99770.06;334538;29;1420;-77
2022/12/07 00:21:15;;;;;;;;;;;;;;;5.72;100.00;99768.38;334732;29;950;-77
2022/12/07 00:21:29;;;;;;;;;;;;;;;5.72;100.00;99770.97;333199;29;1348;-77
2022/12/07 00:21:39;;;;;;;;;;;;;;;5.73;100.00;99777.88;337038;29;1302;-77
2022/12/07 00:21:49;;;;;;;;;;;;;;;5.73;100.00;99777.88;336880;29;1558;-77
2022/12/07 00:21:59;;;;;;;;;;;;;;;5.72;100.00;99773.56;336019;29;939;-77
2022/12/07 00:22:10;;;;;;;;;;;;;;;5.73;100.00;99772.69;333072;29;1370;-76
2022/12/07 00:22:20;;;;;;;;;;;;;;;5.72;100.00;99774.41;327693;29;2036;-77
2022/12/07 00:22:30;;;;;;;;;;;;;;;5.69;100.00;99770.13;325919;30;1389;-77
2022/12/07 00:22:40;;;;;;;;;;;;;;;5.71;100.00;99782.22;330403;29;2139;-76
2022/12/07 00:22:52;;;;;;;;;;;;;;;5.69;100.00;99774.47;327106;29;5516;-76
2022/12/07 00:23:02;;;;;;;;;;;;;;;5.69;100.00;99777.91;331672;29;6167;-76
2022/12/07 00:23:12;;;;;;;;;;;;;;;5.69;100.00;99772.72;333223;29;2002;-77
2022/12/07 00:23:23;;;;;;;;;;;;;;;5.67;100.00;99771.03;335385;29;1268;-77
2022/12/07 00:23:33;;;;;;;;;;;;;;;5.69;100.00;99779.66;332632;29;1387;-76
2022/12/07 00:23:44;;;;;;;;;;;;;;;5.68;100.00;99784.00;332136;29;872;-77
2022/12/07 00:23:54;;;;;;;;;;;;;;;5.66;100.00;99775.38;327843;30;1928;-76
2022/12/07 00:24:05;;;;;;;;;;;;;;;5.67;100.00;99765.84;324541;30;2406;-77
2022/12/07 00:24:15;;;;;;;;;;;;;;;5.66;100.00;99774.53;324822;30;1450;-77
2022/12/07 00:24:25;;;;;;;;;;;;;;;5.66;100.00;99771.94;323131;30;2317;-76
2022/12/07 00:24:35;;;;;;;;;;;;;;;5.66;100.00;99790.09;322204;30;2818;-76
2022/12/07 00:24:46;;;;;;;;;;;;;;;5.65;100.00;99781.47;323659;30;893;-76
2022/12/07 00:24:56;;;;;;;;;;;;;;;5.65;100.00;99778.84;321043;30;2616;-76
2022/12/07 00:25:06;;;;;;;;;;;;;;;5.65;100.00;99778.84;323103;30;1900;-76
2022/12/07 00:25:16;;;;;;;;;;;;;;;5.65;100.00;99773.66;324439;30;1339;-77
2022/12/07 00:25:27;;;;;;;;;;;;;;;5.64;100.00;99779.75;322478;30;913;-76
2022/12/07 00:25:37;;;;;;;;;;;;;;;5.65;100.00;99778.00;319471;30;2066;-76
2022/12/07 00:25:49;;;;;;;;;;;;;;;5.65;100.00;99772.81;316909;31;2509;-76
2022/12/07 00:26:09;;;;;;;;;;;;;;;5.63;100.00;99778.03;313219;31;1361;-76
2022/12/07 00:26:20;;;;;;;;;;;;;;;5.63;100.00;99775.44;311303;31;3015;-76
2022/12/07 00:26:31;;;;;;;;;;;;;;;5.65;100.00;99778.00;312240;31;996;-76
2022/12/07 00:26:41;;;;;;;;;;;;;;;5.64;100.00;99782.34;309248;31;3064;-76
2022/12/07 00:26:51;;;;;;;;;;;;;;;5.64;100.00;99769.34;310462;31;3351;-75
2022/12/07 00:27:02;;;;;;;;;;;;;;;5.65;100.00;99775.41;310734;31;3366;-76
2022/12/07 00:27:12;;;;;;;;;;;;;;;5.65;100.00;99775.41;307394;32;1222;-76
2022/12/07 00:27:22;;;;;;;;;;;;;;;5.65;100.00;99783.19;306941;31;2705;-76
2022/12/07 00:27:32;;;;;;;;;;;;;;;5.65;100.00;99784.06;304728;32;1922;-76
2022/12/07 00:27:42;;;;;;;;;;;;;;;5.64;100.00;99782.34;301525;32;1489;-76
2022/12/07 00:27:55;;;;;;;;;;;;;;;5.64;100.00;99779.75;304121;32;2681;-76
2022/12/07 00:28:06;;;;;;;;;;;;;;;5.62;100.00;99776.34;300805;32;4154;-76
2022/12/07 00:28:16;;;;;;;;;;;;;;;5.63;100.00;99775.44;299318;32;4504;-76
2022/12/07 00:28:27;;;;;;;;;;;;;;;5.62;100.00;99784.13;304531;32;883;-76
2022/12/07 00:28:37;;;;;;;;;;;;;;;5.64;100.00;99776.28;301012;32;4348;-76
2022/12/07 00:28:49;;;;;;;;;;;;;;;5.62;100.00;99776.34;299854;32;4352;-76
2022/12/07 00:29:00;;;;;;;;;;;;;;;5.63;100.00;99772.84;301447;32;1493;-76
2022/12/07 00:29:13;;;;;;;;;;;;;;;5.61;100.00;99776.38;298720;32;4637;-75
2022/12/07 00:29:23;;;;;;;;;;;;;;;5.61;100.00;99776.38;298972;32;4378;-75
2022/12/07 00:29:33;;;;;;;;;;;;;;;5.60;100.00;99780.72;296509;33;3186;-76
2022/12/07 00:29:44;;;;;;;;;;;;;;;5.60;100.00;99775.53;295640;33;1147;-75
2022/12/07 00:29:54;;;;;;;;;;;;;;;5.59;100.00;99779.00;295346;33;3101;-75
2022/12/07 00:30:04;;;;;;;;;;;;;;;5.60;100.00;99774.66;292907;33;4832;-75
2022/12/07 00:30:15;;;;;;;;;;;;;;;5.60;100.00;99775.53;291532;34;946;-75
2022/12/07 00:30:25;;;;;;;;;;;;;;;5.61;100.00;99779.84;290195;33;5041;-75
2022/12/07 00:30:35;;;;;;;;;;;;;;;5.61;100.00;99774.63;290421;33;6475;-77
2022/12/07 00:30:45;;;;;;;;;;;;;;;5.61;100.00;99773.78;294439;33;803;-76
2022/12/07 00:31:05;;;;;;;;;;;;;;;5.61;100.00;99777.22;292208;33;6253;-76
2022/12/07 00:31:16;;;;;;;;;;;;;;;5.61;100.00;99782.44;291546;34;872;-75
2022/12/07 00:31:28;;;;;;;;;;;;;;;5.62;100.00;99778.94;286829;34;1458;-75
2022/12/07 00:31:38;;;;;;;;;;;;;;;5.62;100.00;99781.53;286114;34;6347;-76
2022/12/07 00:31:48;;;;;;;;;;;;;;;5.62;100.00;99781.53;284798;34;4608;-76
2022/12/07 00:31:59;;;;;;;;;;;;;;;5.62;100.00;99784.13;283145;34;4274;-76
2022/12/07 00:32:09;;;;;;;;;;;;;;;5.62;100.00;99780.69;284098;34;6291;-75
2022/12/07 00:32:20;;;;;;;;;;;;;;;5.62;100.00;99783.28;281360;34;6731;-76
2022/12/07 00:32:30;;;;;;;;;;;;;;;5.61;100.00;99787.63;279569;35;2418;-77
2022/12/07 00:34:11;;;;;;;;;;;;;;;5.61;100.00;99777.22;2501143;27;19937;-76
2022/12/07 00:34:22;;;;;;;;;;;;;;;5.61;100.00;99782.44;354884;27;907;-75
2022/12/07 00:34:32;;;;;;;;;;;;;;;5.61;100.00;99777.22;351943;28;1342;-75
2022/12/07 00:34:42;;;;;;;;;;;;;;;5.61;100.00;99779.84;350624;28;1207;-76
2022/12/07 00:34:52;;;;;;;;;;;;;;;5.61;100.00;99782.44;353536;28;1183;-75
2022/12/07 00:35:03;;;;;;;;;;;;;;;5.61;100.00;99782.44;353152;28;1532;-75
2022/12/07 00:35:13;;;;;;;;;;;;;;;5.60;100.00;99778.13;351392;28;1528;-76
2022/12/07 00:35:23;;;;;;;;;;;;;;;5.61;100.00;99779.84;350808;28;1247;-77
2022/12/07 00:35:33;;;;;;;;;;;;;;;5.61;100.00;99782.44;350635;28;922;-75
2022/12/07 00:35:44;;;;;;;;;;;;;;;5.61;100.00;99772.03;347747;28;1176;-75
2022/12/07 00:35:57;;;;;;;;;;;;;;;5.61;100.00;99778.97;349236;28;872;-75
2022/12/07 00:36:09;;;;;;;;;;;;;;;5.62;100.00;99784.13;352130;28;832;-76
2022/12/07 00:36:20;;;;;;;;;;;;;;;5.62;100.00;99778.94;352072;28;957;-76
2022/12/07 00:36:30;;;;;;;;;;;;;;;5.61;100.00;99777.22;352073;28;950;-75
2022/12/07 00:36:40;;;;;;;;;;;;;;;5.61;100.00;99771.19;349260;28;1220;-75
2022/12/07 00:36:50;;;;;;;;;;;;;;;5.61;100.00;99777.22;349281;28;1223;-77
2022/12/07 00:37:01;;;;;;;;;;;;;;;5.61;100.00;99773.78;349128;28;1349;-75
2022/12/07 00:37:12;;;;;;;;;;;;;;;5.60;100.00;99778.13;349301;28;1333;-76
2022/12/07 00:37:23;;;;;;;;;;;;;;;5.60;100.00;99774.66;349285;28;896;-76
2022/12/07 00:37:33;;;;;;;;;;;;;;;5.60;100.00;99770.31;349299;28;943;-75
2022/12/07 00:37:43;;;;;;;;;;;;;;;5.59;100.00;99781.59;349375;28;1410;-75
2022/12/07 00:37:53;;;;;;;;;;;;;;;5.59;100.00;99779.00;352094;28;1197;-76
2022/12/07 00:38:04;;;;;;;;;;;;;;;5.59;100.00;99779.00;349142;28;920;-76
2022/12/07 00:38:14;;;;;;;;;;;;;;;5.60;100.00;99777.25;348410;28;847;-76
2022/12/07 00:38:24;;;;;;;;;;;;;;;5.60;100.00;99785.91;349273;28;1379;-76
2022/12/07 00:38:35;;;;;;;;;;;;;;;5.61;100.00;99777.22;350317;28;1352;-76
2022/12/07 00:38:45;;;;;;;;;;;;;;;5.62;100.00;99773.75;346517;28;1335;-76
2022/12/07 00:38:56;;;;;;;;;;;;;;;5.62;100.00;99776.34;347835;28;1278;-76
2022/12/07 00:39:07;;;;;;;;;;;;;;;5.63;100.00;99775.44;349374;28;1019;-76
2022/12/07 00:39:17;;;;;;;;;;;;;;;5.62;100.00;99776.34;350715;28;1464;-76
2022/12/07 00:39:27;;;;;;;;;;;;;;;5.63;100.00;99777.22;350669;28;1008;-76
2022/12/07 00:39:37;;;;;;;;;;;;;;;5.62;100.00;99784.13;349235;28;1209;-76
2022/12/07 00:39:48;;;;;;;;;;;;;;;5.60;100.00;99778.13;348666;28;1056;-76
2022/12/07 00:39:58;;;;;;;;;;;;;;;5.62;100.00;99776.34;348092;28;883;-77
2022/12/07 00:40:08;;;;;;;;;;;;;;;5.62;100.00;99775.50;347760;28;1563;-75
2022/12/07 00:40:19;;;;;;;;;;;;;;;5.61;100.00;99777.22;344914;28;1666;-75
2022/12/07 00:40:29;;;;;;;;;;;;;;;5.62;100.00;99778.94;344984;28;1419;-76
2022/12/07 00:40:39;;;;;;;;;;;;;;;5.62;100.00;99778.94;345235;28;789;-77
2022/12/07 00:40:59;;;;;;;;;;;;;;;5.61;100.00;99777.22;344223;28;1083;-75
2022/12/07 00:41:10;;;;;;;;;;;;;;;5.60;100.00;99775.53;339142;28;5365;-74
2022/12/07 00:41:21;;;;;;;;;;;;;;;5.61;100.00;99777.22;340062;29;6009;-76
2022/12/07 00:41:32;;;;;;;;;;;;;;;5.60;100.00;99774.66;341100;29;878;-76
2022/12/07 00:41:42;;;;;;;;;;;;;;;5.59;100.00;99779.00;341731;28;2587;-75
2022/12/07 00:41:52;;;;;;;;;;;;;;;5.58;100.00;99774.69;339611;29;3586;-76
2022/12/07 00:42:02;;;;;;;;;;;;;;;5.60;100.00;99780.72;336646;29;1405;-76
2022/12/07 00:42:13;;;;;;;;;;;;;;;5.58;100.00;99777.28;335037;29;1016;-76
2022/12/07 00:42:23;;;;;;;;;;;;;;;5.58;100.00;99772.09;338503;29;1200;-76
2022/12/07 00:42:33;;;;;;;;;;;;;;;5.60;100.00;99778.13;338213;29;1335;-75
2022/12/07 00:42:43;;;;;;;;;;;;;;;5.59;100.00;99779.00;337134;29;1539;-75
2022/12/07 00:42:54;;;;;;;;;;;;;;;5.60;100.00;99777.25;338489;29;1467;-75
2022/12/07 00:43:04;;;;;;;;;;;;;;;5.60;100.00;99777.25;336213;29;1985;-75
2022/12/07 00:43:14;;;;;;;;;;;;;;;5.59;100.00;99778.16;337746;29;1005;-76
2022/12/07 00:43:24;;;;;;;;;;;;;;;5.59;100.00;99771.22;339601;29;1288;-76
2022/12/07 00:43:35;;;;;;;;;;;;;;;5.60;100.00;99775.53;339870;29;805;-75
2022/12/07 00:43:45;;;;;;;;;;;;;;;5.60;100.00;99775.53;336702;29;1383;-75
2022/12/07 00:43:56;;;;;;;;;;;;;;;5.61;100.00;99779.84;334914;29;963;-77
2022/12/07 00:44:06;;;;;;;;;;;;;;;5.60;100.00;99775.53;335320;29;1686;-75
2022/12/07 00:44:16;;;;;;;;;;;;;;;5.60;100.00;99775.53;334316;29;1314;-76
2022/12/07 00:44:26;;;;;;;;;;;;;;;5.59;100.00;99779.00;332138;29;1578;-76
2022/12/07 00:44:36;;;;;;;;;;;;;;;5.59;100.00;99779.00;331990;29;1385;-75
2022/12/07 00:44:47;;;;;;;;;;;;;;;5.59;100.00;99779.00;329332;29;1991;-75
2022/12/07 00:44:57;;;;;;;;;;;;;;;5.60;100.00;99780.72;327191;30;1333;-76
2022/12/07 00:45:07;;;;;;;;;;;;;;;5.61;100.00;99777.22;332300;29;2134;-76
2022/12/07 00:45:18;;;;;;;;;;;;;;;5.61;100.00;99777.22;327853;30;1666;-74
2022/12/07 00:45:28;;;;;;;;;;;;;;;5.59;100.00;99773.81;329678;29;1854;-76
2022/12/07 00:45:38;;;;;;;;;;;;;;;5.59;100.00;99773.81;331459;29;1331;-76
2022/12/07 00:45:49;;;;;;;;;;;;;;;5.58;100.00;99777.28;328661;30;1370;-76
2022/12/07 00:45:59;;;;;;;;;;;;;;;5.58;100.00;99777.28;328552;29;2157;-76
2022/12/07 00:46:09;;;;;;;;;;;;;;;5.58;100.00;99769.50;331290;29;1342;-75
2022/12/07 00:46:19;;;;;;;;;;;;;;;5.59;100.00;99773.81;330340;29;2199;-75
2022/12/07 00:46:30;;;;;;;;;;;;;;;5.59;100.00;99775.56;329780;29;1805;-75
2022/12/07 00:46:40;;;;;;;;;;;;;;;5.58;100.00;99777.28;328526;30;1488;-75
2022/12/07 00:46:50;;;;;;;;;;;;;;;5.57;100.00;99772.97;322566;30;2230;-76
2022/12/07 00:47:00;;;;;;;;;;;;;;;5.56;100.00;99771.28;322754;30;2676;-76
2022/12/07 00:47:11;;;;;;;;;;;;;;;5.58;100.00;99773.84;326531;30;1763;-76
2022/12/07 00:47:21;;;;;;;;;;;;;;;5.58;100.00;99771.25;325160;30;2710;-77
2022/12/07 00:47:31;;;;;;;;;;;;;;;5.57;100.00;99772.97;323938;30;1818;-77
2022/12/07 00:47:41;;;;;;;;;;;;;;;5.58;100.00;99769.50;323559;30;1454;-76
2022/12/07 00:47:52;;;;;;;;;;;;;;;5.59;100.00;99770.34;325238;30;2137;-76
2022/12/07 00:48:02;;;;;;;;;;;;;;;5.57;100.00;99772.97;323797;30;2323;-76
2022/12/07 00:48:12;;;;;;;;;;;;;;;5.59;100.00;99772.94;323636;30;1300;-76
2022/12/07 00:48:24;;;;;;;;;;;;;;;5.59;100.00;99772.94;315222;31;2107;-76
2022/12/07 00:48:34;;;;;;;;;;;;;;;5.58;100.00;99772.09;315983;31;2572;-76
2022/12/07 00:48:44;;;;;;;;;;;;;;;5.57;100.00;99772.97;312892;31;2806;-76
2022/12/07 00:48:55;;;;;;;;;;;;;;;5.59;100.00;99772.94;311039;31;1893;-76
2022/12/07 00:49:05;;;;;;;;;;;;;;;5.59;100.00;99768.63;309519;31;3081;-76
2022/12/07 00:49:15;;;;;;;;;;;;;;;5.58;100.00;99771.25;309015;31;3679;-76
2022/12/07 00:49:26;;;;;;;;;;;;;;;5.58;100.00;99771.25;310683;31;1587;-77
2022/12/07 00:49:36;;;;;;;;;;;;;;;5.58;100.00;99772.09;308470;31;3505;-77
2022/12/07 00:49:47;;;;;;;;;;;;;;;5.56;100.00;99768.66;306980;32;2573;-77
2022/12/07 00:49:57;;;;;;;;;;;;;;;5.55;100.00;99768.69;306663;32;1062;-76
2022/12/07 00:50:07;;;;;;;;;;;;;;;5.56;100.00;99773.88;306132;32;2632;-76
2022/12/07 00:50:17;;;;;;;;;;;;;;;5.54;100.00;99770.44;303825;32;3790;-76
2022/12/07 00:50:28;;;;;;;;;;;;;;;5.55;100.00;99766.97;302578;31;5581;-77
2022/12/07 00:50:38;;;;;;;;;;;;;;;5.54;100.00;99765.25;309161;31;2144;-77
2022/12/07 00:50:48;;;;;;;;;;;;;;;5.55;100.00;99772.16;306557;31;3926;-76
2022/12/07 00:50:58;;;;;;;;;;;;;;;5.54;100.00;99770.44;304365;32;6321;-77
2022/12/07 00:51:09;;;;;;;;;;;;;;;5.54;100.00;99770.44;306014;32;1227;-77
2022/12/07 00:51:20;;;;;;;;;;;;;;;5.53;100.00;99773.91;302138;32;4342;-75
2022/12/07 00:51:30;;;;;;;;;;;;;;;5.53;100.00;99768.72;300760;32;5020;-76
2022/12/07 00:51:40;;;;;;;;;;;;;;;5.53;100.00;99767.88;304638;32;904;-76
2022/12/07 00:51:51;;;;;;;;;;;;;;;5.53;100.00;99762.69;304915;32;4903;-76
2022/12/07 00:52:01;;;;;;;;;;;;;;;5.52;100.00;99768.75;303169;32;3501;-77
2022/12/07 00:52:11;;;;;;;;;;;;;;;5.53;100.00;99762.69;301699;32;1464;-76
2022/12/07 00:52:22;;;;;;;;;;;;;;;5.52;100.00;99772.19;301374;32;3622;-77
2022/12/07 00:52:32;;;;;;;;;;;;;;;5.52;100.00;99767.00;297304;33;4620;-76
2022/12/07 00:52:43;;;;;;;;;;;;;;;5.52;100.00;99768.75;295347;33;1402;-77
2022/12/07 00:52:54;;;;;;;;;;;;;;;5.52;100.00;99767.00;295348;33;1355;-76
2022/12/07 00:53:04;;;;;;;;;;;;;;;5.52;100.00;99764.41;291518;33;6635;-76
2022/12/07 00:53:15;;;;;;;;;;;;;;;5.52;100.00;99767.00;291077;33;6237;-77
2022/12/07 00:53:25;;;;;;;;;;;;;;;5.51;100.00;99762.72;291466;34;1215;-77
2022/12/07 00:53:35;;;;;;;;;;;;;;;5.50;100.00;99768.78;288496;33;5982;-78
2022/12/07 00:53:46;;;;;;;;;;;;;;;5.51;100.00;99762.72;287092;34;6688;-74
2022/12/07 00:53:56;;;;;;;;;;;;;;;5.51;100.00;99769.63;286797;34;923;-77
2022/12/07 00:54:06;;;;;;;;;;;;;;;5.50;100.00;99763.59;287379;34;6746;-76
2022/12/07 00:54:16;;;;;;;;;;;;;;;5.49;100.00;99761.88;285494;34;5352;-76
2022/12/07 00:54:27;;;;;;;;;;;;;;;5.49;100.00;99766.22;283938;34;1289;-76
2022/12/07 00:54:37;;;;;;;;;;;;;;;5.48;100.00;99767.94;285382;34;5605;-76
2022/12/07 00:56:24;;;;;;;;;;;;;;;5.39;100.00;99770.69;2494610;27;19933;-75
2022/12/07 00:56:35;;;;;;;;;;;;;;;5.39;100.00;99770.69;354921;27;914;-75
2022/12/07 00:56:45;;;;;;;;;;;;;;;5.37;100.00;99769.88;354838;27;1185;-75
2022/12/07 00:56:55;;;;;;;;;;;;;;;5.40;100.00;99771.56;353305;28;1543;-75
2022/12/07 00:57:05;;;;;;;;;;;;;;;5.39;100.00;99770.69;352063;28;1411;-76
2022/12/07 00:57:16;;;;;;;;;;;;;;;5.40;100.00;99762.03;352364;28;1831;-76
2022/12/07 00:57:26;;;;;;;;;;;;;;;5.40;100.00;99772.41;349219;28;1330;-76
2022/12/07 00:57:36;;;;;;;;;;;;;;;5.41;100.00;99771.53;350790;28;867;-76
2022/12/07 00:57:46;;;;;;;;;;;;;;;5.42;100.00;99772.38;347821;28;1256;-76
2022/12/07 00:57:57;;;;;;;;;;;;;;;5.42;100.00;99770.66;349404;28;796;-76
2022/12/07 00:58:07;;;;;;;;;;;;;;;5.42;100.00;99765.47;347842;28;832;-76
2022/12/07 00:58:17;;;;;;;;;;;;;;;5.42;100.00;99765.47;350532;28;1127;-75
2022/12/07 00:58:27;;;;;;;;;;;;;;;5.42;100.00;99765.47;350577;28;1368;-76
2022/12/07 00:58:38;;;;;;;;;;;;;;;5.43;100.00;99769.75;349312;28;1326;-75
2022/12/07 00:58:51;;;;;;;;;;;;;;;5.42;100.00;99770.66;348592;28;1097;-76
2022/12/07 00:59:02;;;;;;;;;;;;;;;5.43;100.00;99767.16;348019;28;1091;-76
2022/12/07 00:59:14;;;;;;;;;;;;;;;5.43;100.00;99771.50;349373;28;872;-75
2022/12/07 00:59:24;;;;;;;;;;;;;;;5.42;100.00;99765.47;350721;28;855;-75
2022/12/07 00:59:35;;;;;;;;;;;;;;;5.42;100.00;99765.47;348105;28;5502;-75
2022/12/07 00:59:45;;;;;;;;;;;;;;;5.43;100.00;99776.69;349284;28;3363;-76
2022/12/07 00:59:57;;;;;;;;;;;;;;;5.42;100.00;99769.78;349228;28;1822;-76
2022/12/07 01:00:07;;;;;;;;;;;;;;;5.41;100.00;99768.94;346227;28;3353;-76
2022/12/07 01:00:18;;;;;;;;;;;;;;;5.42;100.00;99768.06;347025;28;1511;-76
2022/12/07 01:00:28;;;;;;;;;;;;;;;5.41;100.00;99774.13;347782;28;900;-77
2022/12/07 01:00:39;;;;;;;;;;;;;;;5.41;100.00;99774.13;347736;28;1339;-76
2022/12/07 01:00:49;;;;;;;;;;;;;;;5.40;100.00;99772.41;347864;28;1224;-76
2022/12/07 01:01:00;;;;;;;;;;;;;;;5.41;100.00;99771.53;347856;28;1485;-78
2022/12/07 01:01:10;;;;;;;;;;;;;;;5.42;100.00;99764.59;347929;28;1401;-76
2022/12/07 01:01:20;;;;;;;;;;;;;;;5.41;100.00;99768.94;347946;28;875;-75
2022/12/07 01:01:31;;;;;;;;;;;;;;;5.42;100.00;99764.59;349435;28;847;-75
2022/12/07 01:01:42;;;;;;;;;;;;;;;5.43;100.00;99772.38;349361;28;938;-76
2022/12/07 01:01:52;;;;;;;;;;;;;;;5.43;100.00;99761.13;349109;28;1213;-76
2022/12/07 01:02:02;;;;;;;;;;;;;;;5.42;100.00;99770.66;348390;28;1176;-76
2022/12/07 01:02:12;;;;;;;;;;;;;;;5.41;100.00;99768.94;347816;28;1222;-76